createdAt,value
2017-10-26T00:00:04.962Z,95821.09
2017-10-26T00:02:33.320Z,95805.85
2017-10-26T00:05:01.670Z,95811.59
2017-10-26T00:07:30.072Z,95807.61
2017-10-26T00:09:58.418Z,95801.03
2017-10-26T00:12:26.775Z,95806.00
2017-10-26T00:14:55.123Z,95798.97
2017-10-26T00:17:23.515Z,95802.35
2017-10-26T00:19:52.034Z,95808.96
2017-10-26T00:22:20.378Z,95808.27
2017-10-26T00:24:48.722Z,95807.83
2017-10-26T00:27:17.078Z,95808.45
2017-10-26T00:29:45.453Z,95805.05
2017-10-26T00:32:13.844Z,95806.64
2017-10-26T00:34:42.182Z,95796.96
2017-10-26T00:37:10.546Z,95798.92
2017-10-26T00:39:38.902Z,95799.08
2017-10-26T00:42:07.292Z,95800.19
2017-10-26T00:44:35.670Z,95787.73
2017-10-26T00:47:04.090Z,95791.99
2017-10-26T00:49:32.438Z,95793.02
2017-10-26T00:52:00.824Z,95804.38
2017-10-26T00:54:29.235Z,95805.77
2017-10-26T00:56:57.582Z,95796.36
2017-10-26T00:59:25.936Z,95801.01
2017-10-26T01:01:54.291Z,95799.50
2017-10-26T01:04:22.638Z,95802.30
2017-10-26T01:06:51.071Z,95803.59
2017-10-26T01:09:19.484Z,95799.80
2017-10-26T01:11:47.863Z,95798.89
2017-10-26T01:14:16.245Z,95794.37
2017-10-26T01:16:44.595Z,95786.14
2017-10-26T01:19:12.960Z,95794.44
2017-10-26T01:21:41.324Z,95795.28
2017-10-26T01:24:09.695Z,95797.96
2017-10-26T01:26:38.063Z,95794.73
2017-10-26T01:29:06.414Z,95793.73
2017-10-26T01:31:34.773Z,95803.23
2017-10-26T01:34:03.126Z,95796.58
2017-10-26T01:36:31.519Z,95797.03
2017-10-26T01:38:59.895Z,95801.77
2017-10-26T01:41:28.246Z,95801.61
2017-10-26T01:43:56.630Z,95797.91
2017-10-26T01:46:24.988Z,95800.61
2017-10-26T01:48:53.343Z,95793.47
2017-10-26T01:51:21.759Z,95797.02
2017-10-26T01:53:50.133Z,95786.87
2017-10-26T01:56:18.530Z,95786.17
2017-10-26T01:58:46.924Z,95784.91
2017-10-26T02:01:15.299Z,95778.19
2017-10-26T02:03:43.656Z,95791.63
2017-10-26T02:06:12.039Z,95793.77
2017-10-26T02:08:40.400Z,95795.42
2017-10-26T02:11:08.780Z,95797.74
2017-10-26T02:13:37.174Z,95799.47
2017-10-26T02:16:05.561Z,95790.06
2017-10-26T02:18:33.922Z,95787.20
2017-10-26T02:21:02.315Z,95789.97
2017-10-26T02:23:30.696Z,95781.38
2017-10-26T02:25:59.100Z,95777.77
2017-10-26T02:28:39.236Z,95776.31
2017-10-26T02:31:19.355Z,95766.63
2017-10-26T02:33:47.716Z,95770.28
2017-10-26T02:36:16.116Z,95760.42
2017-10-26T02:38:44.527Z,95767.92
2017-10-26T02:41:12.904Z,95774.91
2017-10-26T02:43:41.284Z,95779.29
2017-10-26T02:46:09.630Z,95785.72
2017-10-26T02:48:38.025Z,95787.13
2017-10-26T02:51:06.394Z,95786.34
2017-10-26T02:53:34.742Z,95782.98
2017-10-26T02:56:03.178Z,95778.70
2017-10-26T02:58:31.532Z,95786.81
2017-10-26T03:00:59.928Z,95783.98
2017-10-26T03:03:28.288Z,95790.14
2017-10-26T03:05:56.686Z,95794.23
2017-10-26T03:08:25.048Z,95791.94
2017-10-26T03:10:53.386Z,95783.02
2017-10-26T03:13:21.780Z,95778.48
2017-10-26T03:15:50.126Z,95781.30
2017-10-26T03:18:18.523Z,95771.76
2017-10-26T03:20:46.884Z,95770.81
2017-10-26T03:23:15.273Z,95758.05
2017-10-26T03:25:43.659Z,95763.74
2017-10-26T03:28:12.062Z,95757.72
2017-10-26T03:30:40.413Z,95757.64
2017-10-26T03:33:08.757Z,95754.59
2017-10-26T03:35:37.120Z,95753.36
2017-10-26T03:38:05.472Z,95745.94
2017-10-26T03:40:33.856Z,95758.39
2017-10-26T03:43:02.223Z,95753.81
2017-10-26T03:45:30.604Z,95759.23
2017-10-26T03:47:58.976Z,95763.55
2017-10-26T03:50:27.362Z,95769.13
2017-10-26T03:52:55.733Z,95774.98
2017-10-26T03:55:24.149Z,95775.72
2017-10-26T03:57:52.500Z,95782.83
2017-10-26T04:00:20.856Z,95774.88
2017-10-26T04:02:49.224Z,95759.11
2017-10-26T04:05:17.603Z,95756.13
2017-10-26T04:07:45.971Z,95761.41
2017-10-26T04:10:14.351Z,95774.21
2017-10-26T04:12:42.702Z,95776.90
2017-10-26T04:15:11.079Z,95771.76
2017-10-26T04:17:39.445Z,95776.77
2017-10-26T04:20:07.847Z,95776.13
2017-10-26T04:22:36.209Z,95775.47
2017-10-26T04:25:04.561Z,95778.91
2017-10-26T04:27:32.914Z,95768.84
2017-10-26T04:30:01.283Z,95774.50
2017-10-26T04:32:29.639Z,95776.06
2017-10-26T04:34:57.999Z,95769.31
2017-10-26T04:37:26.392Z,95762.23
2017-10-26T04:39:54.739Z,95762.80
2017-10-26T04:42:23.137Z,95755.56
2017-10-26T04:44:51.499Z,95746.80
2017-10-26T04:47:20.003Z,95754.07
2017-10-26T04:49:48.341Z,95759.48
2017-10-26T04:52:16.704Z,95766.87
2017-10-26T04:54:45.063Z,95769.81
2017-10-26T04:57:13.427Z,95772.33
2017-10-26T04:59:41.816Z,95770.73
2017-10-26T05:02:10.172Z,95770.02
2017-10-26T05:04:38.563Z,95773.03
2017-10-26T05:07:06.938Z,95764.64
2017-10-26T05:09:35.329Z,95766.00
2017-10-26T05:12:03.691Z,95759.45
2017-10-26T05:14:32.088Z,95755.00
2017-10-26T05:17:00.501Z,95754.87
2017-10-26T05:19:28.895Z,95748.74
2017-10-26T05:21:57.247Z,95752.95
2017-10-26T05:24:25.623Z,95749.83
2017-10-26T05:26:53.972Z,95746.61
2017-10-26T05:29:22.366Z,95745.95
2017-10-26T05:31:50.774Z,95748.09
2017-10-26T05:34:19.140Z,95748.77
2017-10-26T05:36:47.499Z,95746.02
2017-10-26T05:39:15.856Z,95743.39
2017-10-26T05:41:44.212Z,95741.86
2017-10-26T05:44:12.598Z,95737.95
2017-10-26T05:46:40.955Z,95745.41
2017-10-26T05:49:09.353Z,95749.28
2017-10-26T05:51:37.725Z,95756.30
2017-10-26T05:54:06.078Z,95757.05
2017-10-26T05:56:34.467Z,95752.80
2017-10-26T05:59:02.860Z,95761.48
2017-10-26T06:01:31.223Z,95762.36
2017-10-26T06:03:59.612Z,95761.22
2017-10-26T06:06:27.967Z,95764.35
2017-10-26T06:08:56.322Z,95763.05
2017-10-26T06:11:24.687Z,95765.46
2017-10-26T06:13:53.067Z,95759.98
2017-10-26T06:16:21.420Z,95761.55
2017-10-26T06:18:49.779Z,95763.65
2017-10-26T06:21:18.155Z,95759.44
2017-10-26T06:23:46.546Z,95762.23
2017-10-26T06:26:14.931Z,95748.98
2017-10-26T06:28:43.283Z,95745.03
2017-10-26T06:31:11.642Z,95744.70
2017-10-26T06:33:40.037Z,95747.31
2017-10-26T06:36:08.389Z,95751.08
2017-10-26T06:38:36.811Z,95735.95
2017-10-26T06:41:05.176Z,95720.40
2017-10-26T06:43:33.555Z,95730.35
2017-10-26T06:46:01.951Z,95736.86
2017-10-26T06:48:30.307Z,95747.23
2017-10-26T06:50:58.663Z,95751.57
2017-10-26T06:53:27.050Z,95743.72
2017-10-26T06:55:55.435Z,95740.32
2017-10-26T06:58:23.796Z,95734.98
2017-10-26T07:00:52.271Z,95737.55
2017-10-26T07:03:20.650Z,95750.90
2017-10-26T07:05:49.115Z,95755.18
2017-10-26T07:08:17.506Z,95759.01
2017-10-26T07:10:45.864Z,95750.02
2017-10-26T07:13:14.238Z,95749.87
2017-10-26T07:15:42.592Z,95751.11
2017-10-26T07:18:10.984Z,95746.70
2017-10-26T07:20:39.358Z,95754.27
2017-10-26T07:23:07.710Z,95758.33
2017-10-26T07:25:36.088Z,95762.40
2017-10-26T07:28:04.446Z,95763.66
2017-10-26T07:30:32.995Z,95763.22
2017-10-26T07:33:01.343Z,95766.38
2017-10-26T07:35:29.697Z,95777.47
2017-10-26T07:37:58.046Z,95787.34
2017-10-26T07:40:26.479Z,95797.39
2017-10-26T07:42:54.867Z,95805.05
2017-10-26T07:45:23.224Z,95796.61
2017-10-26T07:47:51.603Z,95788.83
2017-10-26T07:50:19.991Z,95796.81
2017-10-26T07:52:48.369Z,95794.30
2017-10-26T07:55:16.719Z,95793.70
2017-10-26T07:57:45.162Z,95795.06
2017-10-26T08:00:13.551Z,95787.22
2017-10-26T08:02:41.989Z,95787.59
2017-10-26T08:05:10.369Z,95790.45
2017-10-26T08:07:38.727Z,95782.02
2017-10-26T08:10:07.110Z,95777.87
2017-10-26T08:12:35.479Z,95772.05
2017-10-26T08:15:03.881Z,95769.68
2017-10-26T08:17:32.246Z,95770.72
2017-10-26T08:20:00.608Z,95772.16
2017-10-26T08:22:28.952Z,95749.27
2017-10-26T08:24:57.311Z,95751.94
2017-10-26T08:27:25.684Z,95753.63
2017-10-26T08:29:54.060Z,95762.91
2017-10-26T08:32:22.443Z,95754.21
2017-10-26T08:34:50.797Z,95744.66
2017-10-26T08:37:19.153Z,95746.42
2017-10-26T08:39:47.540Z,95744.01
2017-10-26T08:42:15.888Z,95746.11
2017-10-26T08:44:44.296Z,95748.55
2017-10-26T08:47:12.647Z,95753.02
2017-10-26T08:49:40.997Z,95759.27
2017-10-26T08:52:09.371Z,95754.81
2017-10-26T08:54:37.793Z,95761.88
2017-10-26T08:57:06.267Z,95755.02
2017-10-26T08:59:34.626Z,95758.27
2017-10-26T09:02:02.970Z,95768.91
2017-10-26T09:04:31.313Z,95769.38
2017-10-26T09:06:59.658Z,95769.64
2017-10-26T09:09:28.073Z,95770.64
2017-10-26T09:11:56.414Z,95772.56
2017-10-26T09:14:24.787Z,95775.62
2017-10-26T09:16:53.164Z,95776.39
2017-10-26T09:19:21.520Z,95779.05
2017-10-26T09:21:49.873Z,95783.78
2017-10-26T09:24:18.228Z,95779.41
2017-10-26T09:26:46.598Z,95789.58
2017-10-26T09:29:14.950Z,95769.98
2017-10-26T09:31:43.299Z,95771.33
2017-10-26T09:34:11.650Z,95764.55
2017-10-26T09:36:39.996Z,95759.70
2017-10-26T09:39:08.378Z,95756.11
2017-10-26T09:41:36.727Z,95763.17
2017-10-26T09:44:05.075Z,95757.13
2017-10-26T09:46:33.414Z,95764.64
2017-10-26T09:49:01.753Z,95760.61
2017-10-26T09:51:30.106Z,95760.91
2017-10-26T09:53:58.491Z,95749.49
2017-10-26T09:56:26.882Z,95750.17
2017-10-26T09:58:55.258Z,95750.51
2017-10-26T10:01:23.666Z,95758.17
2017-10-26T10:03:52.037Z,95750.05
2017-10-26T10:06:20.386Z,95747.06
2017-10-26T10:08:48.730Z,95750.09
2017-10-26T10:11:17.997Z,95749.60
2017-10-26T10:13:46.374Z,95741.99
2017-10-26T10:16:27.710Z,95742.55
2017-10-26T10:18:56.075Z,95742.62
2017-10-26T10:21:24.464Z,95744.05
2017-10-26T10:23:52.845Z,95735.31
2017-10-26T10:26:21.218Z,95735.03
2017-10-26T10:28:49.563Z,95743.89
2017-10-26T10:31:17.926Z,95740.06
2017-10-26T10:33:46.271Z,95737.98
2017-10-26T10:36:14.610Z,95738.56
2017-10-26T10:38:42.956Z,95741.67
2017-10-26T10:41:11.299Z,95738.36
2017-10-26T10:43:39.697Z,95740.49
2017-10-26T10:46:08.050Z,95742.74
2017-10-26T10:48:36.440Z,95738.95
2017-10-26T10:51:05.693Z,95743.27
2017-10-26T10:53:34.046Z,95741.20
2017-10-26T10:56:02.391Z,95740.28
2017-10-26T10:58:30.740Z,95739.16
2017-10-26T11:00:59.095Z,95740.77
2017-10-26T11:03:27.446Z,95731.98
2017-10-26T11:05:55.842Z,95725.63
2017-10-26T11:08:24.192Z,95725.19
2017-10-26T11:10:52.571Z,95722.14
2017-10-26T11:13:20.953Z,95726.82
2017-10-26T11:15:49.303Z,95728.13
2017-10-26T11:18:17.682Z,95721.09
2017-10-26T11:20:46.068Z,95723.70
2017-10-26T11:23:14.456Z,95712.09
2017-10-26T11:25:42.806Z,95709.11
2017-10-26T11:28:11.161Z,95705.62
2017-10-26T11:30:39.508Z,95703.28
2017-10-26T11:33:07.856Z,95694.34
2017-10-26T11:35:36.206Z,95691.65
2017-10-26T11:38:04.639Z,95689.69
2017-10-26T11:40:33.011Z,95697.13
2017-10-26T11:43:01.362Z,95698.09
2017-10-26T11:45:29.693Z,95697.00
2017-10-26T11:47:58.038Z,95684.20
2017-10-26T11:50:26.425Z,95694.16
2017-10-26T11:52:54.820Z,95693.36
2017-10-26T11:55:23.187Z,95699.34
2017-10-26T11:57:51.558Z,95691.70
2017-10-26T12:00:19.943Z,95682.92
2017-10-26T12:02:48.299Z,95666.11
2017-10-26T12:05:16.630Z,95662.74
2017-10-26T12:07:44.999Z,95671.34
2017-10-26T12:10:13.349Z,95673.77
2017-10-26T12:12:41.702Z,95672.26
2017-10-26T12:15:10.039Z,95664.51
2017-10-26T12:17:38.379Z,95661.52
2017-10-26T12:20:06.724Z,95671.75
2017-10-26T12:22:35.071Z,95675.34
2017-10-26T12:25:03.441Z,95677.30
2017-10-26T12:27:31.807Z,95666.74
2017-10-26T12:30:00.147Z,95667.88
2017-10-26T12:32:28.495Z,95662.77
2017-10-26T12:34:56.836Z,95670.33
2017-10-26T12:37:25.204Z,95664.81
2017-10-26T12:39:53.575Z,95673.45
2017-10-26T12:42:21.947Z,95675.46
2017-10-26T12:44:50.288Z,95663.72
2017-10-26T12:47:18.690Z,95668.31
2017-10-26T12:49:47.058Z,95677.03
2017-10-26T12:52:15.438Z,95666.47
2017-10-26T12:54:43.779Z,95666.50
2017-10-26T12:57:12.159Z,95656.75
2017-10-26T12:59:40.490Z,95635.48
2017-10-26T13:02:08.853Z,95619.14
2017-10-26T13:04:37.215Z,95622.09
2017-10-26T13:07:05.599Z,95619.45
2017-10-26T13:09:33.934Z,95623.00
2017-10-26T13:12:02.310Z,95635.67
2017-10-26T13:14:30.657Z,95646.11
2017-10-26T13:16:59.002Z,95654.30
2017-10-26T13:19:27.358Z,95647.67
2017-10-26T13:21:55.707Z,95642.18
2017-10-26T13:24:24.074Z,95645.57
2017-10-26T13:26:52.402Z,95637.08
2017-10-26T13:29:20.748Z,95633.02
2017-10-26T13:31:49.087Z,95639.05
2017-10-26T13:34:17.557Z,95641.79
2017-10-26T13:36:45.935Z,95636.05
2017-10-26T13:39:14.275Z,95634.69
2017-10-26T13:41:42.617Z,95639.75
2017-10-26T13:44:11.015Z,95633.39
2017-10-26T13:46:39.346Z,95624.25
2017-10-26T13:49:07.680Z,95624.22
2017-10-26T13:51:36.020Z,95619.28
2017-10-26T13:54:04.391Z,95620.07
2017-10-26T13:56:32.730Z,95621.25
2017-10-26T13:59:01.213Z,95625.03
2017-10-26T14:01:29.566Z,95634.31
2017-10-26T14:03:57.953Z,95634.59
2017-10-26T14:06:26.328Z,95629.51
2017-10-26T14:08:55.498Z,95625.72
2017-10-26T14:11:23.886Z,95630.95
2017-10-26T14:13:52.239Z,95627.69
2017-10-26T14:16:20.580Z,95631.02
2017-10-26T14:18:49.115Z,95634.23
2017-10-26T14:21:17.482Z,95635.05
2017-10-26T14:23:45.856Z,95634.52
2017-10-26T14:26:14.319Z,95626.16
2017-10-26T14:28:42.735Z,95623.81
2017-10-26T14:31:11.186Z,95627.00
2017-10-26T14:33:39.560Z,95639.16
2017-10-26T14:36:07.923Z,95626.36
2017-10-26T14:38:36.291Z,95619.14
2017-10-26T14:41:04.678Z,95620.11
2017-10-26T14:43:33.029Z,95624.55
2017-10-26T14:46:01.385Z,95613.98
2017-10-26T14:48:29.740Z,95621.11
2017-10-26T14:50:58.091Z,95623.61
2017-10-26T14:53:26.445Z,95616.11
2017-10-26T14:55:54.885Z,95615.63
2017-10-26T14:58:23.252Z,95618.41
2017-10-26T15:00:51.618Z,95617.23
2017-10-26T15:03:19.975Z,95606.61
2017-10-26T15:05:48.312Z,95610.55
2017-10-26T15:08:16.677Z,95605.88
2017-10-26T15:10:45.040Z,95598.98
2017-10-26T15:13:13.416Z,95602.89
2017-10-26T15:15:41.762Z,95613.63
2017-10-26T15:18:10.128Z,95609.78
2017-10-26T15:20:38.505Z,95610.06
2017-10-26T15:23:06.847Z,95609.70
2017-10-26T15:25:35.194Z,95605.63
2017-10-26T15:28:03.539Z,95595.42
2017-10-26T15:30:31.888Z,95598.88
2017-10-26T15:33:00.253Z,95592.44
2017-10-26T15:35:28.748Z,95595.75
2017-10-26T15:37:57.114Z,95578.85
2017-10-26T15:40:25.473Z,95586.98
2017-10-26T15:42:53.834Z,95580.80
2017-10-26T15:45:22.174Z,95576.31
2017-10-26T15:47:50.540Z,95577.48
2017-10-26T15:50:18.881Z,95576.64
2017-10-26T15:52:47.252Z,95577.77
2017-10-26T15:55:15.632Z,95582.47
2017-10-26T15:57:43.979Z,95572.89
2017-10-26T16:00:12.342Z,95583.34
2017-10-26T16:02:40.748Z,95580.37
2017-10-26T16:05:09.135Z,95590.17
2017-10-26T16:07:37.487Z,95589.03
2017-10-26T16:10:05.858Z,95584.52
2017-10-26T16:12:34.202Z,95574.61
2017-10-26T16:15:02.589Z,95575.74
2017-10-26T16:17:30.946Z,95582.02
2017-10-26T16:19:59.331Z,95584.84
2017-10-26T16:22:27.700Z,95583.84
2017-10-26T16:24:56.075Z,95576.39
2017-10-26T16:27:24.414Z,95575.56
2017-10-26T16:29:52.758Z,95585.57
2017-10-26T16:32:21.145Z,95586.18
2017-10-26T16:34:49.554Z,95579.80
2017-10-26T16:37:17.966Z,95590.49
2017-10-26T16:39:46.424Z,95594.58
2017-10-26T16:42:14.784Z,95601.38
2017-10-26T16:44:43.340Z,95595.05
2017-10-26T16:47:11.835Z,95606.66
2017-10-26T16:49:40.206Z,95614.68
2017-10-26T16:52:08.590Z,95605.80
2017-10-26T16:54:36.943Z,95599.47
2017-10-26T16:57:05.322Z,95600.52
2017-10-26T16:59:33.687Z,95589.93
2017-10-26T17:02:02.975Z,95585.09
2017-10-26T17:04:31.359Z,95591.28
2017-10-26T17:06:59.708Z,95597.41
2017-10-26T17:09:28.146Z,95608.88
2017-10-26T17:11:56.509Z,95595.83
2017-10-26T17:14:24.959Z,95587.20
2017-10-26T17:16:53.309Z,95589.77
2017-10-26T17:19:21.703Z,95592.48
2017-10-26T17:21:50.089Z,95592.37
2017-10-26T17:24:18.443Z,95600.94
2017-10-26T17:26:46.799Z,95600.20
2017-10-26T17:29:15.192Z,95600.69
2017-10-26T17:31:43.563Z,95594.80
2017-10-26T17:34:11.923Z,95586.70
2017-10-26T17:36:41.210Z,95591.77
2017-10-26T17:39:09.560Z,95581.98
2017-10-26T17:41:37.931Z,95580.20
2017-10-26T17:44:06.298Z,95589.95
2017-10-26T17:46:34.803Z,95588.17
2017-10-26T17:49:03.158Z,95579.87
2017-10-26T17:51:31.512Z,95578.87
2017-10-26T17:53:59.870Z,95578.83
2017-10-26T17:56:28.260Z,95578.61
2017-10-26T17:58:56.639Z,95572.50
2017-10-26T18:01:24.980Z,95574.20
2017-10-26T18:03:53.350Z,95565.10
2017-10-26T18:08:48.306Z,95564.63
2017-10-26T18:11:16.662Z,95567.13
2017-10-26T18:13:45.043Z,95557.53
2017-10-26T18:16:13.418Z,95543.54
2017-10-26T18:18:41.776Z,95528.73
2017-10-26T18:21:10.154Z,95507.80
2017-10-26T18:23:38.542Z,95506.15
2017-10-26T18:26:06.936Z,95517.78
2017-10-26T18:28:35.322Z,95506.96
2017-10-26T18:31:03.681Z,95512.97
2017-10-26T18:33:32.036Z,95514.19
2017-10-26T18:36:00.401Z,95514.52
2017-10-26T18:38:28.751Z,95524.39
2017-10-26T18:40:57.136Z,95529.38
2017-10-26T18:43:25.506Z,95540.24
2017-10-26T18:45:53.858Z,95553.63
2017-10-26T18:48:22.211Z,95553.67
2017-10-26T18:50:50.603Z,95562.19
2017-10-26T18:53:18.972Z,95554.10
2017-10-26T18:55:47.325Z,95547.57
2017-10-26T18:58:15.687Z,95549.86
2017-10-26T19:00:44.053Z,95551.08
2017-10-26T19:03:12.467Z,95551.33
2017-10-26T19:05:40.829Z,95556.40
2017-10-26T19:08:09.197Z,95543.89
2017-10-26T19:10:37.542Z,95539.39
2017-10-26T19:13:05.935Z,95541.20
2017-10-26T19:15:34.335Z,95536.34
2017-10-26T19:18:02.679Z,95516.58
2017-10-26T19:20:31.062Z,95520.08
2017-10-26T19:22:59.419Z,95507.87
2017-10-26T19:25:27.807Z,95482.74
2017-10-26T19:27:56.178Z,95483.91
2017-10-26T19:30:24.540Z,95476.77
2017-10-26T19:32:52.944Z,95481.50
2017-10-26T19:35:21.322Z,95498.87
2017-10-26T19:37:49.687Z,95505.77
2017-10-26T19:40:18.045Z,95516.39
2017-10-26T19:42:46.432Z,95508.27
2017-10-26T19:45:14.786Z,95487.27
2017-10-26T19:47:43.147Z,95496.14
2017-10-26T19:50:11.500Z,95514.59
2017-10-26T19:52:39.897Z,95509.11
2017-10-26T19:55:08.365Z,95501.53
2017-10-26T19:57:36.757Z,95500.77
2017-10-26T20:00:05.111Z,95499.61
2017-10-26T20:02:33.511Z,95501.21
2017-10-26T20:05:01.882Z,95501.73
2017-10-26T20:07:30.239Z,95496.80
2017-10-26T20:09:58.655Z,95496.89
2017-10-26T20:12:27.023Z,95499.70
2017-10-26T20:14:55.415Z,95492.69
2017-10-26T20:17:23.776Z,95492.69
2017-10-26T20:19:52.138Z,95503.77
2017-10-26T20:22:20.825Z,95510.78
2017-10-26T20:24:49.210Z,95517.36
2017-10-26T20:27:18.041Z,95524.00
2017-10-26T20:29:46.443Z,95528.88
2017-10-26T20:32:14.799Z,95536.37
2017-10-26T20:34:43.166Z,95539.19
2017-10-26T20:37:11.540Z,95530.95
2017-10-26T20:39:39.900Z,95529.72
2017-10-26T20:42:08.254Z,95529.22
2017-10-26T20:44:36.746Z,95525.37
2017-10-26T20:47:05.128Z,95530.81
2017-10-26T20:49:39.180Z,95538.29
2017-10-26T20:52:13.312Z,95526.16
2017-10-26T20:54:47.142Z,95526.63
2017-10-26T20:57:21.128Z,95524.61
2017-10-26T20:59:55.089Z,95522.64
2017-10-26T21:02:29.106Z,95518.63
2017-10-26T21:05:02.973Z,95516.84
2017-10-26T21:07:36.947Z,95517.47
2017-10-26T21:10:05.299Z,95514.89
2017-10-26T21:15:40.780Z,95521.81
2017-10-26T21:18:09.139Z,95531.66
2017-10-26T21:20:37.773Z,95518.78
2017-10-26T21:23:06.142Z,95511.13
2017-10-26T21:25:34.543Z,95513.13
2017-10-26T21:28:02.933Z,95506.09
2017-10-26T21:30:31.315Z,95507.94
2017-10-26T21:32:59.783Z,95508.39
2017-10-26T21:35:28.134Z,95501.02
2017-10-26T21:37:56.510Z,95508.73
2017-10-26T21:40:24.880Z,95511.97
2017-10-26T21:42:53.280Z,95495.53
2017-10-26T21:45:21.635Z,95482.63
2017-10-26T21:47:49.974Z,95484.05
2017-10-26T21:50:18.334Z,95477.69
2017-10-26T21:52:46.690Z,95480.75
2017-10-26T21:55:15.086Z,95480.68
2017-10-26T21:57:43.468Z,95474.53
2017-10-26T22:00:11.841Z,95475.25
2017-10-26T22:02:40.238Z,95477.83
2017-10-26T22:05:08.595Z,95475.43
2017-10-26T22:07:36.979Z,95468.78
2017-10-26T22:10:05.334Z,95468.31
2017-10-26T22:12:33.696Z,95467.34
2017-10-26T22:15:02.064Z,95453.41
2017-10-26T22:17:30.422Z,95452.70
2017-10-26T22:19:58.807Z,95452.50
2017-10-26T22:22:27.164Z,95436.47
2017-10-26T22:24:55.533Z,95443.18
2017-10-26T22:27:23.898Z,95452.58
2017-10-26T22:29:52.273Z,95450.00
2017-10-26T22:32:20.650Z,95445.61
2017-10-26T22:34:49.005Z,95441.95
2017-10-26T22:37:17.395Z,95442.63
2017-10-26T22:39:45.775Z,95437.38
2017-10-26T22:42:14.128Z,95441.43
2017-10-26T22:44:42.483Z,95445.72
2017-10-26T22:47:10.929Z,95447.59
2017-10-26T22:49:39.302Z,95424.82
2017-10-26T22:52:07.663Z,95434.78
2017-10-26T22:54:36.022Z,95438.52
2017-10-26T22:57:04.414Z,95424.11
2017-10-26T22:59:32.768Z,95434.77
2017-10-26T23:02:01.119Z,95434.89
2017-10-26T23:04:29.484Z,95427.25
2017-10-26T23:06:57.878Z,95427.85
2017-10-26T23:09:26.251Z,95428.81
2017-10-26T23:11:54.644Z,95426.86
2017-10-26T23:14:23.141Z,95423.56
2017-10-26T23:16:51.488Z,95427.59
2017-10-26T23:19:19.844Z,95419.51
2017-10-26T23:21:48.193Z,95423.75
2017-10-26T23:24:16.575Z,95420.67
2017-10-26T23:26:44.947Z,95424.34
2017-10-26T23:29:13.323Z,95417.73
2017-10-26T23:31:41.675Z,95426.55
2017-10-26T23:34:10.280Z,95432.25
2017-10-26T23:36:38.727Z,95428.03
2017-10-26T23:39:07.119Z,95414.66
2017-10-26T23:41:35.488Z,95414.30
2017-10-26T23:44:03.840Z,95420.38
2017-10-26T23:46:32.190Z,95421.80
2017-10-26T23:49:00.579Z,95406.73
2017-10-26T23:51:28.946Z,95390.56
2017-10-26T23:53:57.335Z,95397.61
2017-10-26T23:56:25.688Z,95399.80
2017-10-26T23:58:54.104Z,95393.45
